sensor_id;sensor_type;location;lat;lon;timestamp;P1;durP1;ratioP1;P2;durP2;ratioP2
23743;SDS011;12052;53.478;10.182;2022-09-01T00:02:22;1.70;;;0.70;;
23743;SDS011;12052;53.478;10.182;2022-09-01T00:04:51;0.88;;;0.70;;
23743;SDS011;12052;53.478;10.182;2022-09-01T00:07:22;0.85;;;0.77;;
23743;SDS011;12052;53.478;10.182;2022-09-01T00:09:48;0.73;;;0.73;;
23743;SDS011;12052;53.478;10.182;2022-09-01T00:12:15;1.58;;;0.88;;
23743;SDS011;12052;53.478;10.182;2022-09-01T00:14:41;1.08;;;0.80;;
23743;SDS011;12052;53.478;10.182;2022-09-01T00:17:08;4.20;;;0.90;;
23743;SDS011;12052;53.478;10.182;2022-09-01T00:19:35;1.60;;;0.90;;
23743;SDS011;12052;53.478;10.182;2022-09-01T00:22:02;1.13;;;0.80;;
23743;SDS011;12052;53.478;10.182;2022-09-01T00:24:28;2.17;;;0.80;;
23743;SDS011;12052;53.478;10.182;2022-09-01T00:26:54;2.65;;;0.90;;
23743;SDS011;12052;53.478;10.182;2022-09-01T00:29:21;1.30;;;0.80;;
23743;SDS011;12052;53.478;10.182;2022-09-01T00:31:47;1.55;;;0.80;;
23743;SDS011;12052;53.478;10.182;2022-09-01T00:34:13;2.97;;;0.85;;
23743;SDS011;12052;53.478;10.182;2022-09-01T00:36:39;1.10;;;0.90;;
23743;SDS011;12052;53.478;10.182;2022-09-01T00:39:05;3.63;;;0.82;;
23743;SDS011;12052;53.478;10.182;2022-09-01T00:41:32;2.83;;;1.15;;
23743;SDS011;12052;53.478;10.182;2022-09-01T00:44:04;7.25;;;0.80;;
23743;SDS011;12052;53.478;10.182;2022-09-01T00:46:41;0.88;;;0.80;;
23743;SDS011;12052;53.478;10.182;2022-09-01T00:49:15;4.32;;;0.93;;
23743;SDS011;12052;53.478;10.182;2022-09-01T00:51:46;1.05;;;0.88;;
23743;SDS011;12052;53.478;10.182;2022-09-01T00:54:15;4.68;;;0.80;;
23743;SDS011;12052;53.478;10.182;2022-09-01T00:56:44;1.33;;;0.80;;
23743;SDS011;12052;53.478;10.182;2022-09-01T00:59:12;0.80;;;0.70;;
23743;SDS011;12052;53.478;10.182;2022-09-01T01:01:38;1.08;;;0.60;;
23743;SDS011;12052;53.478;10.182;2022-09-01T01:04:05;1.67;;;0.70;;
23743;SDS011;12052;53.478;10.182;2022-09-01T01:06:39;2.05;;;0.70;;
23743;SDS011;12052;53.478;10.182;2022-09-01T01:09:13;0.73;;;0.70;;
23743;SDS011;12052;53.478;10.182;2022-09-01T01:11:44;1.10;;;0.80;;
23743;SDS011;12052;53.478;10.182;2022-09-01T01:14:11;2.05;;;0.70;;
23743;SDS011;12052;53.478;10.182;2022-09-01T01:16:40;4.80;;;0.90;;
23743;SDS011;12052;53.478;10.182;2022-09-01T01:19:32;1.08;;;0.82;;
23743;SDS011;12052;53.478;10.182;2022-09-01T01:22:28;1.30;;;0.70;;
23743;SDS011;12052;53.478;10.182;2022-09-01T01:28:09;0.80;;;0.80;;
23743;SDS011;12052;53.478;10.182;2022-09-01T01:30:42;1.75;;;0.80;;
23743;SDS011;12052;53.478;10.182;2022-09-01T01:33:17;1.45;;;0.70;;
23743;SDS011;12052;53.478;10.182;2022-09-01T01:35:51;2.88;;;0.93;;
23743;SDS011;12052;53.478;10.182;2022-09-01T01:38:18;4.18;;;1.00;;
23743;SDS011;12052;53.478;10.182;2022-09-01T01:40:46;1.17;;;0.93;;
23743;SDS011;12052;53.478;10.182;2022-09-01T01:43:12;2.05;;;0.75;;
23743;SDS011;12052;53.478;10.182;2022-09-01T01:45:47;1.77;;;0.93;;
23743;SDS011;12052;53.478;10.182;2022-09-01T01:48:16;2.35;;;1.30;;
23743;SDS011;12052;53.478;10.182;2022-09-01T01:50:48;1.07;;;0.80;;
23743;SDS011;12052;53.478;10.182;2022-09-01T01:53:18;2.40;;;0.70;;
23743;SDS011;12052;53.478;10.182;2022-09-01T01:55:47;0.90;;;0.80;;
23743;SDS011;12052;53.478;10.182;2022-09-01T01:58:14;1.63;;;0.70;;
23743;SDS011;12052;53.478;10.182;2022-09-01T02:00:41;4.38;;;0.90;;
23743;SDS011;12052;53.478;10.182;2022-09-01T02:03:08;1.77;;;0.95;;
23743;SDS011;12052;53.478;10.182;2022-09-01T02:05:36;2.80;;;0.90;;
23743;SDS011;12052;53.478;10.182;2022-09-01T02:08:05;2.47;;;0.98;;
23743;SDS011;12052;53.478;10.182;2022-09-01T02:10:34;1.00;;;0.68;;
23743;SDS011;12052;53.478;10.182;2022-09-01T02:13:03;0.80;;;0.80;;
23743;SDS011;12052;53.478;10.182;2022-09-01T02:15:32;0.98;;;0.82;;
23743;SDS011;12052;53.478;10.182;2022-09-01T02:18:06;1.27;;;0.90;;
23743;SDS011;12052;53.478;10.182;2022-09-01T02:20:32;1.13;;;0.90;;
23743;SDS011;12052;53.478;10.182;2022-09-01T02:22:58;1.92;;;1.05;;
23743;SDS011;12052;53.478;10.182;2022-09-01T02:25:33;2.60;;;0.90;;
23743;SDS011;12052;53.478;10.182;2022-09-01T02:27:59;1.45;;;0.70;;
23743;SDS011;12052;53.478;10.182;2022-09-01T02:30:27;3.58;;;0.95;;
23743;SDS011;12052;53.478;10.182;2022-09-01T02:32:56;0.80;;;0.73;;
23743;SDS011;12052;53.478;10.182;2022-09-01T02:35:22;1.83;;;0.85;;
23743;SDS011;12052;53.478;10.182;2022-09-01T02:37:51;0.70;;;0.70;;
23743;SDS011;12052;53.478;10.182;2022-09-01T02:40:19;1.83;;;0.82;;
23743;SDS011;12052;53.478;10.182;2022-09-01T02:42:45;1.42;;;0.73;;
23743;SDS011;12052;53.478;10.182;2022-09-01T02:45:11;2.17;;;1.13;;
23743;SDS011;12052;53.478;10.182;2022-09-01T02:47:41;1.30;;;1.08;;
23743;SDS011;12052;53.478;10.182;2022-09-01T02:50:09;1.40;;;1.10;;
23743;SDS011;12052;53.478;10.182;2022-09-01T02:52:37;1.02;;;0.95;;
23743;SDS011;12052;53.478;10.182;2022-09-01T02:55:04;1.75;;;1.05;;
23743;SDS011;12052;53.478;10.182;2022-09-01T02:57:31;5.65;;;1.10;;
23743;SDS011;12052;53.478;10.182;2022-09-01T02:59:58;2.35;;;1.00;;
23743;SDS011;12052;53.478;10.182;2022-09-01T03:02:24;1.92;;;1.20;;
23743;SDS011;12052;53.478;10.182;2022-09-01T03:04:53;1.10;;;1.00;;
23743;SDS011;12052;53.478;10.182;2022-09-01T03:07:19;4.00;;;1.15;;
23743;SDS011;12052;53.478;10.182;2022-09-01T03:09:50;3.20;;;0.95;;
23743;SDS011;12052;53.478;10.182;2022-09-01T03:12:16;1.20;;;0.80;;
23743;SDS011;12052;53.478;10.182;2022-09-01T03:14:43;1.13;;;1.00;;
23743;SDS011;12052;53.478;10.182;2022-09-01T03:17:09;1.80;;;1.05;;
23743;SDS011;12052;53.478;10.182;2022-09-01T03:19:35;3.40;;;1.20;;
23743;SDS011;12052;53.478;10.182;2022-09-01T03:22:09;2.42;;;1.20;;
23743;SDS011;12052;53.478;10.182;2022-09-01T03:24:34;2.13;;;0.90;;
23743;SDS011;12052;53.478;10.182;2022-09-01T03:27:00;2.67;;;0.98;;
23743;SDS011;12052;53.478;10.182;2022-09-01T03:29:26;1.85;;;0.90;;
23743;SDS011;12052;53.478;10.182;2022-09-01T03:31:52;1.88;;;0.80;;
23743;SDS011;12052;53.478;10.182;2022-09-01T03:34:17;3.72;;;1.10;;
23743;SDS011;12052;53.478;10.182;2022-09-01T03:36:47;1.00;;;0.80;;
23743;SDS011;12052;53.478;10.182;2022-09-01T03:39:17;2.08;;;1.10;;
23743;SDS011;12052;53.478;10.182;2022-09-01T03:41:43;2.72;;;1.20;;
23743;SDS011;12052;53.478;10.182;2022-09-01T03:44:09;1.70;;;1.00;;
23743;SDS011;12052;53.478;10.182;2022-09-01T03:46:40;1.27;;;1.10;;
23743;SDS011;12052;53.478;10.182;2022-09-01T03:49:07;1.10;;;1.00;;
23743;SDS011;12052;53.478;10.182;2022-09-01T03:51:36;2.22;;;0.85;;
23743;SDS011;12052;53.478;10.182;2022-09-01T03:54:02;1.25;;;0.80;;
23743;SDS011;12052;53.478;10.182;2022-09-01T03:56:28;3.42;;;1.02;;
23743;SDS011;12052;53.478;10.182;2022-09-01T03:58:56;3.97;;;1.15;;
23743;SDS011;12052;53.478;10.182;2022-09-01T04:01:24;1.77;;;1.00;;
23743;SDS011;12052;53.478;10.182;2022-09-01T04:03:51;3.35;;;1.30;;
23743;SDS011;12052;53.478;10.182;2022-09-01T04:06:17;0.98;;;0.98;;
23743;SDS011;12052;53.478;10.182;2022-09-01T04:08:45;2.42;;;0.80;;
23743;SDS011;12052;53.478;10.182;2022-09-01T04:11:12;1.42;;;1.20;;
23743;SDS011;12052;53.478;10.182;2022-09-01T04:13:42;1.85;;;1.02;;
23743;SDS011;12052;53.478;10.182;2022-09-01T04:16:25;1.10;;;0.98;;
23743;SDS011;12052;53.478;10.182;2022-09-01T04:19:13;2.92;;;1.10;;
23743;SDS011;12052;53.478;10.182;2022-09-01T04:21:49;1.67;;;1.15;;
23743;SDS011;12052;53.478;10.182;2022-09-01T04:24:25;0.95;;;0.80;;
23743;SDS011;12052;53.478;10.182;2022-09-01T04:26:52;0.85;;;0.68;;
23743;SDS011;12052;53.478;10.182;2022-09-01T04:29:20;1.17;;;0.90;;
23743;SDS011;12052;53.478;10.182;2022-09-01T04:31:53;3.10;;;1.08;;
23743;SDS011;12052;53.478;10.182;2022-09-01T04:34:20;1.73;;;1.00;;
23743;SDS011;12052;53.478;10.182;2022-09-01T04:36:48;1.52;;;1.02;;
23743;SDS011;12052;53.478;10.182;2022-09-01T04:39:14;2.50;;;1.05;;
23743;SDS011;12052;53.478;10.182;2022-09-01T04:41:41;1.83;;;1.05;;
23743;SDS011;12052;53.478;10.182;2022-09-01T04:44:10;1.42;;;0.82;;
23743;SDS011;12052;53.478;10.182;2022-09-01T04:46:38;1.55;;;1.15;;
23743;SDS011;12052;53.478;10.182;2022-09-01T04:49:10;1.23;;;0.90;;
23743;SDS011;12052;53.478;10.182;2022-09-01T04:51:40;2.00;;;1.33;;
23743;SDS011;12052;53.478;10.182;2022-09-01T04:54:07;2.58;;;1.17;;
23743;SDS011;12052;53.478;10.182;2022-09-01T04:56:39;4.50;;;1.35;;
23743;SDS011;12052;53.478;10.182;2022-09-01T04:59:07;4.63;;;1.25;;
23743;SDS011;12052;53.478;10.182;2022-09-01T05:01:35;1.42;;;1.00;;
23743;SDS011;12052;53.478;10.182;2022-09-01T05:04:11;1.48;;;1.30;;
23743;SDS011;12052;53.478;10.182;2022-09-01T05:06:44;2.97;;;1.02;;
23743;SDS011;12052;53.478;10.182;2022-09-01T05:09:13;1.27;;;1.00;;
23743;SDS011;12052;53.478;10.182;2022-09-01T05:11:41;5.25;;;1.27;;
23743;SDS011;12052;53.478;10.182;2022-09-01T05:14:09;3.40;;;1.17;;
23743;SDS011;12052;53.478;10.182;2022-09-01T05:16:36;3.00;;;0.88;;
23743;SDS011;12052;53.478;10.182;2022-09-01T05:19:05;1.50;;;1.20;;
23743;SDS011;12052;53.478;10.182;2022-09-01T05:21:38;1.45;;;1.13;;
23743;SDS011;12052;53.478;10.182;2022-09-01T05:24:10;4.05;;;1.10;;
23743;SDS011;12052;53.478;10.182;2022-09-01T05:26:39;2.88;;;1.20;;
23743;SDS011;12052;53.478;10.182;2022-09-01T05:29:05;3.53;;;1.30;;
23743;SDS011;12052;53.478;10.182;2022-09-01T05:31:41;1.85;;;1.15;;
23743;SDS011;12052;53.478;10.182;2022-09-01T05:34:08;3.72;;;1.20;;
23743;SDS011;12052;53.478;10.182;2022-09-01T05:36:35;1.63;;;1.15;;
23743;SDS011;12052;53.478;10.182;2022-09-01T05:39:03;6.72;;;1.50;;
23743;SDS011;12052;53.478;10.182;2022-09-01T05:41:30;2.53;;;1.52;;
23743;SDS011;12052;53.478;10.182;2022-09-01T05:43:58;4.57;;;1.35;;
23743;SDS011;12052;53.478;10.182;2022-09-01T05:46:26;2.83;;;1.13;;
23743;SDS011;12052;53.478;10.182;2022-09-01T05:48:52;3.60;;;1.75;;
23743;SDS011;12052;53.478;10.182;2022-09-01T05:51:23;2.10;;;1.17;;
23743;SDS011;12052;53.478;10.182;2022-09-01T05:53:52;2.50;;;1.25;;
23743;SDS011;12052;53.478;10.182;2022-09-01T05:56:23;2.38;;;1.13;;
23743;SDS011;12052;53.478;10.182;2022-09-01T05:58:50;4.43;;;1.25;;
23743;SDS011;12052;53.478;10.182;2022-09-01T06:01:21;3.33;;;1.27;;
23743;SDS011;12052;53.478;10.182;2022-09-01T06:06:19;3.00;;;1.20;;
23743;SDS011;12052;53.478;10.182;2022-09-01T06:08:47;4.38;;;1.58;;
23743;SDS011;12052;53.478;10.182;2022-09-01T06:11:16;1.63;;;1.20;;
23743;SDS011;12052;53.478;10.182;2022-09-01T06:13:43;3.13;;;1.20;;
23743;SDS011;12052;53.478;10.182;2022-09-01T06:16:11;3.63;;;1.17;;
23743;SDS011;12052;53.478;10.182;2022-09-01T06:18:38;1.77;;;1.38;;
23743;SDS011;12052;53.478;10.182;2022-09-01T06:21:05;1.75;;;1.08;;
23743;SDS011;12052;53.478;10.182;2022-09-01T06:23:33;1.88;;;1.10;;
23743;SDS011;12052;53.478;10.182;2022-09-01T06:26:00;2.38;;;1.20;;
23743;SDS011;12052;53.478;10.182;2022-09-01T06:28:27;3.63;;;1.33;;
23743;SDS011;12052;53.478;10.182;2022-09-01T06:30:53;7.05;;;1.27;;
23743;SDS011;12052;53.478;10.182;2022-09-01T06:33:21;5.55;;;1.08;;
23743;SDS011;12052;53.478;10.182;2022-09-01T06:35:49;6.20;;;2.17;;
23743;SDS011;12052;53.478;10.182;2022-09-01T06:38:16;6.43;;;1.45;;
23743;SDS011;12052;53.478;10.182;2022-09-01T06:40:43;2.30;;;1.23;;
23743;SDS011;12052;53.478;10.182;2022-09-01T06:43:09;4.25;;;1.15;;
23743;SDS011;12052;53.478;10.182;2022-09-01T06:45:39;1.95;;;0.90;;
23743;SDS011;12052;53.478;10.182;2022-09-01T06:48:06;1.73;;;1.10;;
23743;SDS011;12052;53.478;10.182;2022-09-01T06:50:32;1.08;;;0.90;;
23743;SDS011;12052;53.478;10.182;2022-09-01T06:52:58;1.40;;;0.85;;
23743;SDS011;12052;53.478;10.182;2022-09-01T06:55:35;2.22;;;0.80;;
23743;SDS011;12052;53.478;10.182;2022-09-01T06:58:05;2.50;;;0.90;;
23743;SDS011;12052;53.478;10.182;2022-09-01T07:00:34;1.95;;;0.80;;
23743;SDS011;12052;53.478;10.182;2022-09-01T07:05:43;1.02;;;0.65;;
23743;SDS011;12052;53.478;10.182;2022-09-01T07:08:11;2.67;;;0.70;;
23743;SDS011;12052;53.478;10.182;2022-09-01T07:10:42;4.57;;;0.90;;
23743;SDS011;12052;53.478;10.182;2022-09-01T07:13:14;0.93;;;0.57;;
23743;SDS011;12052;53.478;10.182;2022-09-01T07:15:45;1.85;;;0.70;;
23743;SDS011;12052;53.478;10.182;2022-09-01T07:18:13;3.53;;;0.70;;
23743;SDS011;12052;53.478;10.182;2022-09-01T07:20:41;1.30;;;0.70;;
23743;SDS011;12052;53.478;10.182;2022-09-01T07:23:08;2.15;;;0.73;;
23743;SDS011;12052;53.478;10.182;2022-09-01T07:25:40;1.58;;;0.68;;
23743;SDS011;12052;53.478;10.182;2022-09-01T07:28:07;0.70;;;0.70;;
23743;SDS011;12052;53.478;10.182;2022-09-01T07:30:38;0.43;;;0.43;;
23743;SDS011;12052;53.478;10.182;2022-09-01T07:33:06;0.77;;;0.45;;
23743;SDS011;12052;53.478;10.182;2022-09-01T07:35:36;6.85;;;0.93;;
23743;SDS011;12052;53.478;10.182;2022-09-01T07:38:03;2.00;;;0.70;;
23743;SDS011;12052;53.478;10.182;2022-09-01T07:40:32;1.70;;;0.70;;
23743;SDS011;12052;53.478;10.182;2022-09-01T07:43:02;0.90;;;0.60;;
23743;SDS011;12052;53.478;10.182;2022-09-01T07:45:32;1.20;;;0.63;;
23743;SDS011;12052;53.478;10.182;2022-09-01T07:48:01;5.03;;;0.98;;
23743;SDS011;12052;53.478;10.182;2022-09-01T07:50:31;6.40;;;0.80;;
23743;SDS011;12052;53.478;10.182;2022-09-01T07:53:01;0.55;;;0.50;;
23743;SDS011;12052;53.478;10.182;2022-09-01T07:55:28;0.73;;;0.52;;
23743;SDS011;12052;53.478;10.182;2022-09-01T07:57:54;1.13;;;0.57;;
23743;SDS011;12052;53.478;10.182;2022-09-01T08:00:21;3.20;;;0.70;;
23743;SDS011;12052;53.478;10.182;2022-09-01T08:02:47;0.52;;;0.38;;
23743;SDS011;12052;53.478;10.182;2022-09-01T08:05:15;0.55;;;0.30;;
23743;SDS011;12052;53.478;10.182;2022-09-01T08:07:46;1.33;;;0.70;;
23743;SDS011;12052;53.478;10.182;2022-09-01T08:10:13;0.55;;;0.50;;
23743;SDS011;12052;53.478;10.182;2022-09-01T08:12:39;1.15;;;0.75;;
23743;SDS011;12052;53.478;10.182;2022-09-01T08:15:06;0.80;;;0.50;;
23743;SDS011;12052;53.478;10.182;2022-09-01T08:17:33;0.90;;;0.60;;
23743;SDS011;12052;53.478;10.182;2022-09-01T08:20:01;0.52;;;0.40;;
23743;SDS011;12052;53.478;10.182;2022-09-01T08:22:27;1.98;;;0.40;;
23743;SDS011;12052;53.478;10.182;2022-09-01T08:24:52;1.77;;;0.47;;
23743;SDS011;12052;53.478;10.182;2022-09-01T08:27:18;1.23;;;0.70;;
23743;SDS011;12052;53.478;10.182;2022-09-01T08:29:44;0.68;;;0.38;;
23743;SDS011;12052;53.478;10.182;2022-09-01T08:32:10;1.40;;;0.50;;
23743;SDS011;12052;53.478;10.182;2022-09-01T08:34:36;0.60;;;0.40;;
23743;SDS011;12052;53.478;10.182;2022-09-01T08:37:02;0.60;;;0.30;;
23743;SDS011;12052;53.478;10.182;2022-09-01T08:39:29;0.52;;;0.40;;
23743;SDS011;12052;53.478;10.182;2022-09-01T08:42:00;3.38;;;0.50;;
23743;SDS011;12052;53.478;10.182;2022-09-01T08:44:57;0.32;;;0.30;;
23743;SDS011;12052;53.478;10.182;2022-09-01T08:47:45;1.48;;;0.50;;
23743;SDS011;12052;53.478;10.182;2022-09-01T08:50:12;4.22;;;0.68;;
23743;SDS011;12052;53.478;10.182;2022-09-01T08:52:40;1.98;;;0.73;;
23743;SDS011;12052;53.478;10.182;2022-09-01T08:55:34;0.38;;;0.30;;
23743;SDS011;12052;53.478;10.182;2022-09-01T08:58:04;1.05;;;0.50;;
23743;SDS011;12052;53.478;10.182;2022-09-01T09:00:37;0.50;;;0.35;;
23743;SDS011;12052;53.478;10.182;2022-09-01T09:03:26;0.32;;;0.30;;
23743;SDS011;12052;53.478;10.182;2022-09-01T09:08:57;2.53;;;0.50;;
23743;SDS011;12052;53.478;10.182;2022-09-01T09:14:33;0.95;;;0.50;;
23743;SDS011;12052;53.478;10.182;2022-09-01T09:17:09;0.80;;;0.40;;
23743;SDS011;12052;53.478;10.182;2022-09-01T09:19:38;1.48;;;0.40;;
23743;SDS011;12052;53.478;10.182;2022-09-01T09:22:16;0.50;;;0.30;;
23743;SDS011;12052;53.478;10.182;2022-09-01T09:27:36;1.63;;;0.40;;
23743;SDS011;12052;53.478;10.182;2022-09-01T09:30:05;0.60;;;0.40;;
23743;SDS011;12052;53.478;10.182;2022-09-01T09:41:03;1.40;;;0.60;;
23743;SDS011;12052;53.478;10.182;2022-09-01T09:43:41;3.70;;;0.60;;
23743;SDS011;12052;53.478;10.182;2022-09-01T09:46:19;1.25;;;0.50;;
23743;SDS011;12052;53.478;10.182;2022-09-01T09:51:35;0.70;;;0.40;;
23743;SDS011;12052;53.478;10.182;2022-09-01T09:54:19;2.25;;;0.52;;
23743;SDS011;12052;53.478;10.182;2022-09-01T09:56:45;1.25;;;0.60;;
23743;SDS011;12052;53.478;10.182;2022-09-01T10:02:02;1.88;;;0.40;;
23743;SDS011;12052;53.478;10.182;2022-09-01T10:07:49;0.68;;;0.40;;
23743;SDS011;12052;53.478;10.182;2022-09-01T10:09:57;1.98;;;0.98;;
23743;SDS011;12052;53.478;10.182;2022-09-01T10:12:26;0.40;;;0.40;;
23743;SDS011;12052;53.478;10.182;2022-09-01T10:14:54;1.48;;;0.50;;
23743;SDS011;12052;53.478;10.182;2022-09-01T10:20:03;0.52;;;0.50;;
23743;SDS011;12052;53.478;10.182;2022-09-01T10:22:32;0.60;;;0.60;;
23743;SDS011;12052;53.478;10.182;2022-09-01T10:25:00;5.18;;;0.50;;
23743;SDS011;12052;53.478;10.182;2022-09-01T10:27:28;1.92;;;0.60;;
23743;SDS011;12052;53.478;10.182;2022-09-01T10:30:07;0.88;;;0.50;;
23743;SDS011;12052;53.478;10.182;2022-09-01T10:32:36;0.47;;;0.40;;
23743;SDS011;12052;53.478;10.182;2022-09-01T10:35:44;0.55;;;0.43;;
23743;SDS011;12052;53.478;10.182;2022-09-01T10:38:24;0.60;;;0.47;;
23743;SDS011;12052;53.478;10.182;2022-09-01T10:40:53;2.13;;;0.70;;
23743;SDS011;12052;53.478;10.182;2022-09-01T10:45:57;0.45;;;0.30;;
23743;SDS011;12052;53.478;10.182;2022-09-01T10:53:42;0.82;;;0.63;;
23743;SDS011;12052;53.478;10.182;2022-09-01T11:04:11;3.38;;;0.60;;
23743;SDS011;12052;53.478;10.182;2022-09-01T11:14:24;0.50;;;0.50;;
23743;SDS011;12052;53.478;10.182;2022-09-01T11:17:13;0.60;;;0.40;;
23743;SDS011;12052;53.478;10.182;2022-09-01T11:19:46;0.60;;;0.43;;
23743;SDS011;12052;53.478;10.182;2022-09-01T11:22:36;1.33;;;0.70;;
23743;SDS011;12052;53.478;10.182;2022-09-01T11:35:59;2.57;;;0.67;;
23743;SDS011;12052;53.478;10.182;2022-09-01T11:38:33;0.88;;;0.60;;
23743;SDS011;12052;53.478;10.182;2022-09-01T11:41:35;0.97;;;0.40;;
23743;SDS011;12052;53.478;10.182;2022-09-01T11:44:19;1.15;;;0.60;;
23743;SDS011;12052;53.478;10.182;2022-09-01T11:46:47;0.80;;;0.60;;
23743;SDS011;12052;53.478;10.182;2022-09-01T11:51:59;1.05;;;0.63;;
23743;SDS011;12052;53.478;10.182;2022-09-01T11:54:27;1.17;;;0.55;;
23743;SDS011;12052;53.478;10.182;2022-09-01T11:57:15;1.23;;;0.55;;
23743;SDS011;12052;53.478;10.182;2022-09-01T11:59:52;0.75;;;0.55;;
23743;SDS011;12052;53.478;10.182;2022-09-01T12:02:19;1.45;;;1.10;;
23743;SDS011;12052;53.478;10.182;2022-09-01T12:04:49;1.73;;;0.40;;
23743;SDS011;12052;53.478;10.182;2022-09-01T12:15:35;1.35;;;0.70;;
23743;SDS011;12052;53.478;10.182;2022-09-01T12:20:46;0.70;;;0.50;;
23743;SDS011;12052;53.478;10.182;2022-09-01T12:23:15;0.63;;;0.50;;
23743;SDS011;12052;53.478;10.182;2022-09-01T12:26:10;1.27;;;0.52;;
23743;SDS011;12052;53.478;10.182;2022-09-01T12:28:49;6.18;;;0.80;;
23743;SDS011;12052;53.478;10.182;2022-09-01T12:31:26;3.35;;;0.55;;
23743;SDS011;12052;53.478;10.182;2022-09-01T12:33:52;1.08;;;0.52;;
23743;SDS011;12052;53.478;10.182;2022-09-01T12:38:53;1.23;;;0.50;;
23743;SDS011;12052;53.478;10.182;2022-09-01T12:41:25;0.75;;;0.47;;
23743;SDS011;12052;53.478;10.182;2022-09-01T12:43:51;1.88;;;0.50;;
23743;SDS011;12052;53.478;10.182;2022-09-01T12:49:15;0.43;;;0.40;;
23743;SDS011;12052;53.478;10.182;2022-09-01T12:51:49;2.25;;;0.50;;
23743;SDS011;12052;53.478;10.182;2022-09-01T12:54:38;1.25;;;0.60;;
23743;SDS011;12052;53.478;10.182;2022-09-01T12:57:04;3.22;;;0.70;;
23743;SDS011;12052;53.478;10.182;2022-09-01T12:59:30;2.65;;;0.55;;
23743;SDS011;12052;53.478;10.182;2022-09-01T13:01:56;0.85;;;0.52;;
23743;SDS011;12052;53.478;10.182;2022-09-01T13:04:23;1.70;;;0.60;;
23743;SDS011;12052;53.478;10.182;2022-09-01T13:07:05;1.23;;;0.57;;
23743;SDS011;12052;53.478;10.182;2022-09-01T13:09:32;2.65;;;0.60;;
23743;SDS011;12052;53.478;10.182;2022-09-01T13:12:11;1.63;;;0.47;;
23743;SDS011;12052;53.478;10.182;2022-09-01T13:14:41;0.68;;;0.40;;
23743;SDS011;12052;53.478;10.182;2022-09-01T13:17:07;1.17;;;0.60;;
23743;SDS011;12052;53.478;10.182;2022-09-01T13:19:32;2.08;;;0.57;;
23743;SDS011;12052;53.478;10.182;2022-09-01T13:21:58;1.02;;;0.60;;
23743;SDS011;12052;53.478;10.182;2022-09-01T13:24:24;1.20;;;0.60;;
23743;SDS011;12052;53.478;10.182;2022-09-01T13:26:49;0.73;;;0.47;;
23743;SDS011;12052;53.478;10.182;2022-09-01T13:29:21;2.47;;;1.00;;
23743;SDS011;12052;53.478;10.182;2022-09-01T13:31:48;2.03;;;0.43;;
23743;SDS011;12052;53.478;10.182;2022-09-01T13:34:13;0.63;;;0.43;;
23743;SDS011;12052;53.478;10.182;2022-09-01T13:36:39;0.50;;;0.50;;
23743;SDS011;12052;53.478;10.182;2022-09-01T13:39:06;1.77;;;0.70;;
23743;SDS011;12052;53.478;10.182;2022-09-01T13:41:31;0.65;;;0.60;;
23743;SDS011;12052;53.478;10.182;2022-09-01T13:43:57;1.25;;;0.70;;
23743;SDS011;12052;53.478;10.182;2022-09-01T13:46:22;0.57;;;0.50;;
23743;SDS011;12052;53.478;10.182;2022-09-01T13:48:48;0.98;;;0.80;;
23743;SDS011;12052;53.478;10.182;2022-09-01T13:51:23;0.60;;;0.60;;
23743;SDS011;12052;53.478;10.182;2022-09-01T13:53:52;2.25;;;0.52;;
23743;SDS011;12052;53.478;10.182;2022-09-01T13:56:18;1.30;;;0.45;;
23743;SDS011;12052;53.478;10.182;2022-09-01T13:58:43;1.40;;;0.63;;
23743;SDS011;12052;53.478;10.182;2022-09-01T14:01:09;1.05;;;0.50;;
23743;SDS011;12052;53.478;10.182;2022-09-01T14:03:35;2.88;;;0.60;;
23743;SDS011;12052;53.478;10.182;2022-09-01T14:06:01;0.50;;;0.50;;
23743;SDS011;12052;53.478;10.182;2022-09-01T14:08:27;0.95;;;0.50;;
23743;SDS011;12052;53.478;10.182;2022-09-01T14:10:53;0.65;;;0.65;;
23743;SDS011;12052;53.478;10.182;2022-09-01T14:13:19;1.95;;;0.70;;
23743;SDS011;12052;53.478;10.182;2022-09-01T14:15:46;0.93;;;0.40;;
23743;SDS011;12052;53.478;10.182;2022-09-01T14:18:13;0.70;;;0.50;;
23743;SDS011;12052;53.478;10.182;2022-09-01T14:20:41;1.45;;;0.43;;
23743;SDS011;12052;53.478;10.182;2022-09-01T14:23:09;1.33;;;0.63;;
23743;SDS011;12052;53.478;10.182;2022-09-01T14:25:35;0.65;;;0.50;;
23743;SDS011;12052;53.478;10.182;2022-09-01T14:28:02;2.08;;;0.98;;
23743;SDS011;12052;53.478;10.182;2022-09-01T14:30:29;1.15;;;0.50;;
23743;SDS011;12052;53.478;10.182;2022-09-01T14:32:56;1.35;;;0.70;;
23743;SDS011;12052;53.478;10.182;2022-09-01T14:35:23;1.02;;;0.57;;
23743;SDS011;12052;53.478;10.182;2022-09-01T14:37:50;3.38;;;0.60;;
23743;SDS011;12052;53.478;10.182;2022-09-01T14:40:18;0.93;;;0.60;;
23743;SDS011;12052;53.478;10.182;2022-09-01T14:42:46;1.23;;;0.50;;
23743;SDS011;12052;53.478;10.182;2022-09-01T14:45:16;2.58;;;0.70;;
23743;SDS011;12052;53.478;10.182;2022-09-01T14:47:53;0.60;;;0.43;;
23743;SDS011;12052;53.478;10.182;2022-09-01T14:50:23;4.65;;;0.50;;
23743;SDS011;12052;53.478;10.182;2022-09-01T14:52:50;1.05;;;0.70;;
23743;SDS011;12052;53.478;10.182;2022-09-01T14:55:20;0.80;;;0.55;;
23743;SDS011;12052;53.478;10.182;2022-09-01T14:57:47;0.32;;;0.32;;
23743;SDS011;12052;53.478;10.182;2022-09-01T15:00:13;3.92;;;0.60;;
23743;SDS011;12052;53.478;10.182;2022-09-01T15:02:39;0.57;;;0.50;;
23743;SDS011;12052;53.478;10.182;2022-09-01T15:05:06;0.90;;;0.70;;
23743;SDS011;12052;53.478;10.182;2022-09-01T15:07:32;0.82;;;0.57;;
23743;SDS011;12052;53.478;10.182;2022-09-01T15:09:58;0.65;;;0.50;;
23743;SDS011;12052;53.478;10.182;2022-09-01T15:12:24;1.17;;;0.70;;
23743;SDS011;12052;53.478;10.182;2022-09-01T15:14:54;0.65;;;0.50;;
23743;SDS011;12052;53.478;10.182;2022-09-01T15:17:20;2.60;;;0.60;;
23743;SDS011;12052;53.478;10.182;2022-09-01T15:19:46;1.05;;;0.60;;
23743;SDS011;12052;53.478;10.182;2022-09-01T15:22:11;1.02;;;0.68;;
23743;SDS011;12052;53.478;10.182;2022-09-01T15:24:38;1.00;;;0.50;;
23743;SDS011;12052;53.478;10.182;2022-09-01T15:27:04;1.67;;;0.63;;
23743;SDS011;12052;53.478;10.182;2022-09-01T15:29:30;3.47;;;1.00;;
23743;SDS011;12052;53.478;10.182;2022-09-01T15:31:58;1.73;;;0.65;;
23743;SDS011;12052;53.478;10.182;2022-09-01T15:34:25;0.93;;;0.55;;
23743;SDS011;12052;53.478;10.182;2022-09-01T15:36:52;0.65;;;0.50;;
23743;SDS011;12052;53.478;10.182;2022-09-01T15:39:17;1.75;;;0.70;;
23743;SDS011;12052;53.478;10.182;2022-09-01T15:41:43;1.35;;;0.50;;
23743;SDS011;12052;53.478;10.182;2022-09-01T15:44:09;0.98;;;0.50;;
23743;SDS011;12052;53.478;10.182;2022-09-01T15:46:35;2.17;;;0.52;;
23743;SDS011;12052;53.478;10.182;2022-09-01T15:49:03;0.77;;;0.60;;
23743;SDS011;12052;53.478;10.182;2022-09-01T15:51:32;2.95;;;0.82;;
23743;SDS011;12052;53.478;10.182;2022-09-01T15:54:00;1.02;;;0.60;;
23743;SDS011;12052;53.478;10.182;2022-09-01T15:56:29;1.90;;;0.50;;
23743;SDS011;12052;53.478;10.182;2022-09-01T15:58:55;0.60;;;0.50;;
23743;SDS011;12052;53.478;10.182;2022-09-01T16:01:23;1.83;;;0.50;;
23743;SDS011;12052;53.478;10.182;2022-09-01T16:03:49;0.98;;;0.70;;
23743;SDS011;12052;53.478;10.182;2022-09-01T16:06:15;0.60;;;0.43;;
23743;SDS011;12052;53.478;10.182;2022-09-01T16:08:41;2.38;;;0.70;;
23743;SDS011;12052;53.478;10.182;2022-09-01T16:11:07;0.70;;;0.50;;
23743;SDS011;12052;53.478;10.182;2022-09-01T16:13:34;2.00;;;0.60;;
23743;SDS011;12052;53.478;10.182;2022-09-01T16:16:06;6.43;;;0.60;;
23743;SDS011;12052;53.478;10.182;2022-09-01T16:18:37;0.60;;;0.57;;